sensor_id;sensor_type;location;lat;lon;timestamp;temperature;humidity
67054;SHT31;53960;51.826;5.850;2022-10-31T00:00:50;12.91;94.75
67054;SHT31;53960;51.826;5.850;2022-10-31T00:03:16;12.84;94.73
67054;SHT31;53960;51.826;5.850;2022-10-31T00:05:47;12.84;94.68
67054;SHT31;53960;51.826;5.850;2022-10-31T00:08:13;12.79;94.55
67054;SHT31;53960;51.826;5.850;2022-10-31T00:10:43;12.74;94.61
67054;SHT31;53960;51.826;5.850;2022-10-31T00:13:10;12.71;94.53
67054;SHT31;53960;51.826;5.850;2022-10-31T00:15:37;12.69;94.44
67054;SHT31;53960;51.826;5.850;2022-10-31T00:18:04;12.67;94.55
67054;SHT31;53960;51.826;5.850;2022-10-31T00:20:30;12.65;94.50
67054;SHT31;53960;51.826;5.850;2022-10-31T00:22:59;12.64;94.52
67054;SHT31;53960;51.826;5.850;2022-10-31T00:25:26;12.61;94.80
67054;SHT31;53960;51.826;5.850;2022-10-31T00:27:51;12.62;94.63
67054;SHT31;53960;51.826;5.850;2022-10-31T00:30:17;12.60;94.63
67054;SHT31;53960;51.826;5.850;2022-10-31T00:32:42;12.57;94.49
67054;SHT31;53960;51.826;5.850;2022-10-31T00:35:07;12.51;94.31
67054;SHT31;53960;51.826;5.850;2022-10-31T00:37:33;12.50;94.44
67054;SHT31;53960;51.826;5.850;2022-10-31T00:39:58;12.48;94.59
67054;SHT31;53960;51.826;5.850;2022-10-31T00:42:23;12.48;94.31
67054;SHT31;53960;51.826;5.850;2022-10-31T00:44:49;12.42;94.37
67054;SHT31;53960;51.826;5.850;2022-10-31T00:47:14;12.36;94.49
67054;SHT31;53960;51.826;5.850;2022-10-31T00:49:39;12.38;94.54
67054;SHT31;53960;51.826;5.850;2022-10-31T00:52:05;12.36;94.48
67054;SHT31;53960;51.826;5.850;2022-10-31T00:54:30;12.34;94.74
67054;SHT31;53960;51.826;5.850;2022-10-31T00:56:56;12.40;94.71
67054;SHT31;53960;51.826;5.850;2022-10-31T00:59:22;12.38;94.84
67054;SHT31;53960;51.826;5.850;2022-10-31T01:01:47;12.38;94.69
67054;SHT31;53960;51.826;5.850;2022-10-31T01:04:12;12.30;94.51
67054;SHT31;53960;51.826;5.850;2022-10-31T01:06:38;12.30;94.56
67054;SHT31;53960;51.826;5.850;2022-10-31T01:09:03;12.26;94.57
67054;SHT31;53960;51.826;5.850;2022-10-31T01:11:28;12.24;94.33
67054;SHT31;53960;51.826;5.850;2022-10-31T01:13:54;12.20;94.44
67054;SHT31;53960;51.826;5.850;2022-10-31T01:16:22;12.19;94.45
67054;SHT31;53960;51.826;5.850;2022-10-31T01:18:48;12.16;94.26
67054;SHT31;53960;51.826;5.850;2022-10-31T01:21:16;12.13;94.32
67054;SHT31;53960;51.826;5.850;2022-10-31T01:23:42;12.13;94.55
67054;SHT31;53960;51.826;5.850;2022-10-31T01:26:14;12.10;94.56
67054;SHT31;53960;51.826;5.850;2022-10-31T01:28:54;12.04;94.55
67054;SHT31;53960;51.826;5.850;2022-10-31T01:31:21;12.09;94.65
67054;SHT31;53960;51.826;5.850;2022-10-31T01:33:47;12.06;94.55
67054;SHT31;53960;51.826;5.850;2022-10-31T01:36:14;12.06;94.58
67054;SHT31;53960;51.826;5.850;2022-10-31T01:38:40;12.07;94.72
67054;SHT31;53960;51.826;5.850;2022-10-31T01:41:06;12.04;94.55
67054;SHT31;53960;51.826;5.850;2022-10-31T01:43:45;12.03;94.96
67054;SHT31;53960;51.826;5.850;2022-10-31T01:46:11;12.00;94.54
67054;SHT31;53960;51.826;5.850;2022-10-31T01:48:39;12.03;94.66
67054;SHT31;53960;51.826;5.850;2022-10-31T01:51:05;12.02;94.67
67054;SHT31;53960;51.826;5.850;2022-10-31T01:53:31;11.97;94.69
67054;SHT31;53960;51.826;5.850;2022-10-31T01:55:58;11.97;95.12
67054;SHT31;53960;51.826;5.850;2022-10-31T01:58:25;11.97;94.95
67054;SHT31;53960;51.826;5.850;2022-10-31T02:00:56;11.97;94.93
67054;SHT31;53960;51.826;5.850;2022-10-31T02:03:23;11.99;94.87
67054;SHT31;53960;51.826;5.850;2022-10-31T02:05:50;11.94;95.19
67054;SHT31;53960;51.826;5.850;2022-10-31T02:08:30;11.97;95.14
67054;SHT31;53960;51.826;5.850;2022-10-31T02:10:57;11.96;95.17
67054;SHT31;53960;51.826;5.850;2022-10-31T02:13:23;11.96;95.33
67054;SHT31;53960;51.826;5.850;2022-10-31T02:15:52;11.96;95.30
67054;SHT31;53960;51.826;5.850;2022-10-31T02:18:18;11.97;95.41
67054;SHT31;53960;51.826;5.850;2022-10-31T02:20:58;12.02;95.62
67054;SHT31;53960;51.826;5.850;2022-10-31T02:24:00;12.03;95.66
67054;SHT31;53960;51.826;5.850;2022-10-31T02:26:59;12.02;95.31
67054;SHT31;53960;51.826;5.850;2022-10-31T02:32:22;12.00;95.36
67054;SHT31;53960;51.826;5.850;2022-10-31T02:38:12;11.99;95.57
67054;SHT31;53960;51.826;5.850;2022-10-31T02:40:48;11.97;95.27
67054;SHT31;53960;51.826;5.850;2022-10-31T02:43:54;11.94;95.36
67054;SHT31;53960;51.826;5.850;2022-10-31T02:46:32;11.93;95.53
67054;SHT31;53960;51.826;5.850;2022-10-31T02:49:03;11.86;95.53
67054;SHT31;53960;51.826;5.850;2022-10-31T02:51:30;11.83;95.45
67054;SHT31;53960;51.826;5.850;2022-10-31T02:53:56;11.75;95.09
67054;SHT31;53960;51.826;5.850;2022-10-31T02:56:21;11.73;95.31
67054;SHT31;53960;51.826;5.850;2022-10-31T02:59:16;11.68;95.15
67054;SHT31;53960;51.826;5.850;2022-10-31T03:02:06;11.66;94.94
67054;SHT31;53960;51.826;5.850;2022-10-31T03:04:38;11.59;95.11
67054;SHT31;53960;51.826;5.850;2022-10-31T03:10:04;11.45;94.98
67054;SHT31;53960;51.826;5.850;2022-10-31T03:12:42;11.46;95.00
67054;SHT31;53960;51.826;5.850;2022-10-31T03:20:53;11.34;94.80
67054;SHT31;53960;51.826;5.850;2022-10-31T03:23:22;11.32;95.16
67054;SHT31;53960;51.826;5.850;2022-10-31T03:25:48;11.31;95.21
67054;SHT31;53960;51.826;5.850;2022-10-31T03:28:19;11.31;95.23
67054;SHT31;53960;51.826;5.850;2022-10-31T03:30:49;11.32;95.38
67054;SHT31;53960;51.826;5.850;2022-10-31T03:33:17;11.31;95.41
67054;SHT31;53960;51.826;5.850;2022-10-31T03:35:46;11.30;95.07
67054;SHT31;53960;51.826;5.850;2022-10-31T03:38:12;11.24;94.94
67054;SHT31;53960;51.826;5.850;2022-10-31T03:40:40;11.24;94.94
67054;SHT31;53960;51.826;5.850;2022-10-31T03:43:16;11.18;95.02
67054;SHT31;53960;51.826;5.850;2022-10-31T03:45:45;11.20;95.23
67054;SHT31;53960;51.826;5.850;2022-10-31T03:48:13;11.15;95.04
67054;SHT31;53960;51.826;5.850;2022-10-31T03:50:50;11.17;95.13
67054;SHT31;53960;51.826;5.850;2022-10-31T03:53:44;11.17;95.11
67054;SHT31;53960;51.826;5.850;2022-10-31T03:56:22;11.14;94.91
67054;SHT31;53960;51.826;5.850;2022-10-31T03:58:57;11.14;94.97
67054;SHT31;53960;51.826;5.850;2022-10-31T04:01:24;11.10;94.93
67054;SHT31;53960;51.826;5.850;2022-10-31T04:03:51;11.13;94.97
67054;SHT31;53960;51.826;5.850;2022-10-31T04:06:18;11.08;94.75
67054;SHT31;53960;51.826;5.850;2022-10-31T04:08:52;11.07;94.97
67054;SHT31;53960;51.826;5.850;2022-10-31T04:11:22;11.03;95.14
67054;SHT31;53960;51.826;5.850;2022-10-31T04:13:49;11.04;95.29
67054;SHT31;53960;51.826;5.850;2022-10-31T04:16:15;11.01;95.11
67054;SHT31;53960;51.826;5.850;2022-10-31T04:18:41;11.04;95.40
67054;SHT31;53960;51.826;5.850;2022-10-31T04:21:07;11.03;95.35
67054;SHT31;53960;51.826;5.850;2022-10-31T04:23:34;11.04;95.28
67054;SHT31;53960;51.826;5.850;2022-10-31T04:26:00;11.04;95.17
67054;SHT31;53960;51.826;5.850;2022-10-31T04:28:26;11.01;95.22
67054;SHT31;53960;51.826;5.850;2022-10-31T04:30:52;11.00;95.26
67054;SHT31;53960;51.826;5.850;2022-10-31T04:33:17;11.01;95.16
67054;SHT31;53960;51.826;5.850;2022-10-31T04:35:43;10.97;95.14
67054;SHT31;53960;51.826;5.850;2022-10-31T04:38:08;10.96;95.28
67054;SHT31;53960;51.826;5.850;2022-10-31T04:40:34;10.97;95.16
67054;SHT31;53960;51.826;5.850;2022-10-31T04:42:59;10.94;94.91
67054;SHT31;53960;51.826;5.850;2022-10-31T04:45:25;10.93;95.28
67054;SHT31;53960;51.826;5.850;2022-10-31T04:47:50;10.89;95.24
67054;SHT31;53960;51.826;5.850;2022-10-31T04:50:15;10.93;95.23
67054;SHT31;53960;51.826;5.850;2022-10-31T04:52:45;10.90;95.22
67054;SHT31;53960;51.826;5.850;2022-10-31T04:55:11;10.89;95.41
67054;SHT31;53960;51.826;5.850;2022-10-31T04:57:42;10.89;95.50
67054;SHT31;53960;51.826;5.850;2022-10-31T05:00:08;10.90;95.40
67054;SHT31;53960;51.826;5.850;2022-10-31T05:02:34;10.90;95.49
67054;SHT31;53960;51.826;5.850;2022-10-31T05:04:59;10.87;95.62
67054;SHT31;53960;51.826;5.850;2022-10-31T05:07:25;10.83;95.71
67054;SHT31;53960;51.826;5.850;2022-10-31T05:09:50;10.85;95.52
67054;SHT31;53960;51.826;5.850;2022-10-31T05:12:15;10.84;95.26
67054;SHT31;53960;51.826;5.850;2022-10-31T05:14:41;10.84;95.37
67054;SHT31;53960;51.826;5.850;2022-10-31T05:17:06;10.80;95.25
67054;SHT31;53960;51.826;5.850;2022-10-31T05:19:31;10.81;95.15
67054;SHT31;53960;51.826;5.850;2022-10-31T05:21:57;10.80;95.09
67054;SHT31;53960;51.826;5.850;2022-10-31T05:24:22;10.80;95.00
67054;SHT31;53960;51.826;5.850;2022-10-31T05:26:48;10.74;95.06
67054;SHT31;53960;51.826;5.850;2022-10-31T05:29:14;10.73;95.18
67054;SHT31;53960;51.826;5.850;2022-10-31T05:31:39;10.70;95.17
67054;SHT31;53960;51.826;5.850;2022-10-31T05:34:05;10.66;95.02
67054;SHT31;53960;51.826;5.850;2022-10-31T05:36:30;10.59;95.01
67054;SHT31;53960;51.826;5.850;2022-10-31T05:38:55;10.57;94.86
67054;SHT31;53960;51.826;5.850;2022-10-31T05:41:21;10.56;94.69
67054;SHT31;53960;51.826;5.850;2022-10-31T05:43:46;10.56;94.60
67054;SHT31;53960;51.826;5.850;2022-10-31T05:46:11;10.57;94.80
67054;SHT31;53960;51.826;5.850;2022-10-31T05:48:37;10.55;94.83
67054;SHT31;53960;51.826;5.850;2022-10-31T05:51:02;10.55;94.90
67054;SHT31;53960;51.826;5.850;2022-10-31T05:53:27;10.55;95.10
67054;SHT31;53960;51.826;5.850;2022-10-31T05:55:53;10.55;95.19
67054;SHT31;53960;51.826;5.850;2022-10-31T05:58:18;10.50;95.21
67054;SHT31;53960;51.826;5.850;2022-10-31T06:00:43;10.50;95.24
67054;SHT31;53960;51.826;5.850;2022-10-31T06:03:09;10.49;95.21
67054;SHT31;53960;51.826;5.850;2022-10-31T06:05:34;10.46;95.32
67054;SHT31;53960;51.826;5.850;2022-10-31T06:08:00;10.43;95.15
67054;SHT31;53960;51.826;5.850;2022-10-31T06:10:27;10.39;95.24
67054;SHT31;53960;51.826;5.850;2022-10-31T06:12:52;10.39;95.36
67054;SHT31;53960;51.826;5.850;2022-10-31T06:15:17;10.36;95.16
67054;SHT31;53960;51.826;5.850;2022-10-31T06:17:43;10.39;95.23
67054;SHT31;53960;51.826;5.850;2022-10-31T06:20:09;10.34;95.51
67054;SHT31;53960;51.826;5.850;2022-10-31T06:22:34;10.31;95.39
67054;SHT31;53960;51.826;5.850;2022-10-31T06:25:00;10.29;95.27
67054;SHT31;53960;51.826;5.850;2022-10-31T06:27:26;10.29;95.06
67054;SHT31;53960;51.826;5.850;2022-10-31T06:29:51;10.26;95.09
67054;SHT31;53960;51.826;5.850;2022-10-31T06:32:17;10.26;95.57
67054;SHT31;53960;51.826;5.850;2022-10-31T06:34:43;10.29;95.46
67054;SHT31;53960;51.826;5.850;2022-10-31T06:37:12;10.32;95.42
67054;SHT31;53960;51.826;5.850;2022-10-31T06:39:38;10.34;95.16
67054;SHT31;53960;51.826;5.850;2022-10-31T06:42:04;10.32;94.96
67054;SHT31;53960;51.826;5.850;2022-10-31T06:44:30;10.31;94.96
67054;SHT31;53960;51.826;5.850;2022-10-31T06:46:56;10.29;95.16
67054;SHT31;53960;51.826;5.850;2022-10-31T06:49:21;10.29;94.83
67054;SHT31;53960;51.826;5.850;2022-10-31T06:51:48;10.29;94.91
67054;SHT31;53960;51.826;5.850;2022-10-31T06:54:13;10.29;95.07
67054;SHT31;53960;51.826;5.850;2022-10-31T06:56:39;10.29;95.21
67054;SHT31;53960;51.826;5.850;2022-10-31T06:59:04;10.32;95.19
67054;SHT31;53960;51.826;5.850;2022-10-31T07:01:29;10.36;95.35
67054;SHT31;53960;51.826;5.850;2022-10-31T07:03:55;10.38;95.44
67054;SHT31;53960;51.826;5.850;2022-10-31T07:06:20;10.41;95.60
67054;SHT31;53960;51.826;5.850;2022-10-31T07:08:46;10.42;95.59
67054;SHT31;53960;51.826;5.850;2022-10-31T07:11:11;10.48;95.35
67054;SHT31;53960;51.826;5.850;2022-10-31T07:13:36;10.53;95.41
67054;SHT31;53960;51.826;5.850;2022-10-31T07:16:04;10.59;95.37
67054;SHT31;53960;51.826;5.850;2022-10-31T07:18:30;10.62;95.24
67054;SHT31;53960;51.826;5.850;2022-10-31T07:20:55;10.67;95.43
67054;SHT31;53960;51.826;5.850;2022-10-31T07:23:21;10.70;95.24
67054;SHT31;53960;51.826;5.850;2022-10-31T07:25:47;10.74;95.07
67054;SHT31;53960;51.826;5.850;2022-10-31T07:28:12;10.79;95.23
67054;SHT31;53960;51.826;5.850;2022-10-31T07:30:38;10.84;95.19
67054;SHT31;53960;51.826;5.850;2022-10-31T07:33:04;10.90;95.18
67054;SHT31;53960;51.826;5.850;2022-10-31T07:35:30;10.93;95.11
67054;SHT31;53960;51.826;5.850;2022-10-31T07:37:55;11.01;95.33
67054;SHT31;53960;51.826;5.850;2022-10-31T07:40:22;11.06;95.21
67054;SHT31;53960;51.826;5.850;2022-10-31T07:42:51;11.13;95.37
67054;SHT31;53960;51.826;5.850;2022-10-31T07:45:20;11.20;95.63
67054;SHT31;53960;51.826;5.850;2022-10-31T07:47:47;11.28;95.53
67054;SHT31;53960;51.826;5.850;2022-10-31T07:50:21;11.39;95.63
67054;SHT31;53960;51.826;5.850;2022-10-31T07:52:46;11.44;95.84
67054;SHT31;53960;51.826;5.850;2022-10-31T07:55:12;11.51;95.67
67054;SHT31;53960;51.826;5.850;2022-10-31T07:57:38;11.57;95.71
67054;SHT31;53960;51.826;5.850;2022-10-31T08:00:05;11.61;95.66
67054;SHT31;53960;51.826;5.850;2022-10-31T08:02:31;11.65;95.53
67054;SHT31;53960;51.826;5.850;2022-10-31T08:04:56;11.71;95.55
67054;SHT31;53960;51.826;5.850;2022-10-31T08:07:22;11.75;95.47
67054;SHT31;53960;51.826;5.850;2022-10-31T08:09:47;11.81;95.48
67054;SHT31;53960;51.826;5.850;2022-10-31T08:12:12;11.87;95.49
67054;SHT31;53960;51.826;5.850;2022-10-31T08:14:38;11.93;95.26
67054;SHT31;53960;51.826;5.850;2022-10-31T08:17:03;11.96;95.65
67054;SHT31;53960;51.826;5.850;2022-10-31T08:19:28;12.07;96.14
67054;SHT31;53960;51.826;5.850;2022-10-31T08:21:54;12.13;95.80
67054;SHT31;53960;51.826;5.850;2022-10-31T08:24:21;12.23;96.00
67054;SHT31;53960;51.826;5.850;2022-10-31T08:26:46;12.30;95.84
67054;SHT31;53960;51.826;5.850;2022-10-31T08:29:12;12.37;95.84
67054;SHT31;53960;51.826;5.850;2022-10-31T08:31:37;12.41;96.13
67054;SHT31;53960;51.826;5.850;2022-10-31T08:34:03;12.51;96.19
67054;SHT31;53960;51.826;5.850;2022-10-31T08:36:28;12.55;96.02
67054;SHT31;53960;51.826;5.850;2022-10-31T08:38:54;12.62;96.15
67054;SHT31;53960;51.826;5.850;2022-10-31T08:41:20;12.72;96.24
67054;SHT31;53960;51.826;5.850;2022-10-31T08:43:45;12.82;96.44
67054;SHT31;53960;51.826;5.850;2022-10-31T08:46:11;12.98;96.02
67054;SHT31;53960;51.826;5.850;2022-10-31T08:48:36;13.09;95.99
67054;SHT31;53960;51.826;5.850;2022-10-31T08:51:02;13.26;95.66
67054;SHT31;53960;51.826;5.850;2022-10-31T08:53:27;13.43;95.41
67054;SHT31;53960;51.826;5.850;2022-10-31T08:55:56;13.57;95.24
67054;SHT31;53960;51.826;5.850;2022-10-31T08:58:22;13.75;94.73
67054;SHT31;53960;51.826;5.850;2022-10-31T09:00:50;13.87;94.49
67054;SHT31;53960;51.826;5.850;2022-10-31T09:03:20;13.97;94.33
67054;SHT31;53960;51.826;5.850;2022-10-31T09:05:46;14.14;92.84
67054;SHT31;53960;51.826;5.850;2022-10-31T09:08:12;14.30;92.25
67054;SHT31;53960;51.826;5.850;2022-10-31T09:10:38;14.48;91.53
67054;SHT31;53960;51.826;5.850;2022-10-31T09:13:11;14.67;91.29
67054;SHT31;53960;51.826;5.850;2022-10-31T09:15:39;14.80;91.22
67054;SHT31;53960;51.826;5.850;2022-10-31T09:18:06;14.91;90.87
67054;SHT31;53960;51.826;5.850;2022-10-31T09:20:33;15.08;89.84
67054;SHT31;53960;51.826;5.850;2022-10-31T09:23:00;15.10;90.31
67054;SHT31;53960;51.826;5.850;2022-10-31T09:25:26;15.17;90.03
67054;SHT31;53960;51.826;5.850;2022-10-31T09:27:56;15.25;89.72
67054;SHT31;53960;51.826;5.850;2022-10-31T09:30:21;15.30;89.57
67054;SHT31;53960;51.826;5.850;2022-10-31T09:32:47;15.30;89.83
67054;SHT31;53960;51.826;5.850;2022-10-31T09:35:12;15.37;89.61
67054;SHT31;53960;51.826;5.850;2022-10-31T09:37:37;15.37;89.77
67054;SHT31;53960;51.826;5.850;2022-10-31T09:40:03;15.35;89.93
67054;SHT31;53960;51.826;5.850;2022-10-31T09:43:13;15.32;90.46
67054;SHT31;53960;51.826;5.850;2022-10-31T09:48:17;15.25;89.90
67054;SHT31;53960;51.826;5.850;2022-10-31T09:50:58;15.23;90.34
67054;SHT31;53960;51.826;5.850;2022-10-31T09:53:37;15.21;90.86
67054;SHT31;53960;51.826;5.850;2022-10-31T09:56:13;15.30;90.64
67054;SHT31;53960;51.826;5.850;2022-10-31T09:58:53;15.38;91.40
67054;SHT31;53960;51.826;5.850;2022-10-31T10:03:51;15.48;90.30
67054;SHT31;53960;51.826;5.850;2022-10-31T10:06:23;15.42;89.68
67054;SHT31;53960;51.826;5.850;2022-10-31T10:08:49;15.47;89.51
67054;SHT31;53960;51.826;5.850;2022-10-31T10:11:40;15.44;89.92
67054;SHT31;53960;51.826;5.850;2022-10-31T10:19:58;15.49;89.63
67054;SHT31;53960;51.826;5.850;2022-10-31T10:23:02;15.48;89.82
67054;SHT31;53960;51.826;5.850;2022-10-31T10:25:39;15.54;89.98
67054;SHT31;53960;51.826;5.850;2022-10-31T10:28:27;15.59;89.26
67054;SHT31;53960;51.826;5.850;2022-10-31T10:33:36;15.61;89.53
67054;SHT31;53960;51.826;5.850;2022-10-31T10:36:08;15.69;89.23
67054;SHT31;53960;51.826;5.850;2022-10-31T10:38:40;15.72;89.86
67054;SHT31;53960;51.826;5.850;2022-10-31T10:41:30;15.70;89.25
67054;SHT31;53960;51.826;5.850;2022-10-31T10:43:55;15.75;88.99
67054;SHT31;53960;51.826;5.850;2022-10-31T10:46:40;15.78;89.14
67054;SHT31;53960;51.826;5.850;2022-10-31T10:49:49;15.90;88.32
67054;SHT31;53960;51.826;5.850;2022-10-31T10:52:27;15.99;88.14
67054;SHT31;53960;51.826;5.850;2022-10-31T10:57:53;16.05;87.39
67054;SHT31;53960;51.826;5.850;2022-10-31T11:00:21;16.09;87.28
67054;SHT31;53960;51.826;5.850;2022-10-31T11:02:48;16.13;87.00
67054;SHT31;53960;51.826;5.850;2022-10-31T11:05:22;16.18;86.98
67054;SHT31;53960;51.826;5.850;2022-10-31T11:07:48;16.18;86.87
67054;SHT31;53960;51.826;5.850;2022-10-31T11:10:15;16.26;86.76
67054;SHT31;53960;51.826;5.850;2022-10-31T11:12:42;16.31;86.43
67054;SHT31;53960;51.826;5.850;2022-10-31T11:15:19;16.36;86.59
67054;SHT31;53960;51.826;5.850;2022-10-31T11:17:48;16.37;87.06
67054;SHT31;53960;51.826;5.850;2022-10-31T11:22:45;16.41;87.08
67054;SHT31;53960;51.826;5.850;2022-10-31T11:25:25;16.40;87.36
67054;SHT31;53960;51.826;5.850;2022-10-31T11:28:00;16.47;87.62
67054;SHT31;53960;51.826;5.850;2022-10-31T11:30:26;16.60;87.59
67054;SHT31;53960;51.826;5.850;2022-10-31T11:32:51;16.71;87.34
67054;SHT31;53960;51.826;5.850;2022-10-31T11:35:22;16.82;87.02
67054;SHT31;53960;51.826;5.850;2022-10-31T11:37:51;16.94;85.67
67054;SHT31;53960;51.826;5.850;2022-10-31T11:40:20;16.95;85.53
67054;SHT31;53960;51.826;5.850;2022-10-31T11:42:47;17.02;85.72
67054;SHT31;53960;51.826;5.850;2022-10-31T11:47:51;17.09;85.80
67054;SHT31;53960;51.826;5.850;2022-10-31T11:50:39;17.13;84.84
67054;SHT31;53960;51.826;5.850;2022-10-31T11:53:26;17.06;84.97
67054;SHT31;53960;51.826;5.850;2022-10-31T11:56:05;17.12;85.71
67054;SHT31;53960;51.826;5.850;2022-10-31T11:58:31;17.16;85.02
67054;SHT31;53960;51.826;5.850;2022-10-31T12:00:57;17.18;84.96
67054;SHT31;53960;51.826;5.850;2022-10-31T12:06:00;17.15;85.35
67054;SHT31;53960;51.826;5.850;2022-10-31T12:08:30;17.16;85.77
67054;SHT31;53960;51.826;5.850;2022-10-31T12:11:08;17.13;85.75
67054;SHT31;53960;51.826;5.850;2022-10-31T12:13:52;17.13;85.55
67054;SHT31;53960;51.826;5.850;2022-10-31T12:16:31;17.11;85.32
67054;SHT31;53960;51.826;5.850;2022-10-31T12:19:15;17.08;85.73
67054;SHT31;53960;51.826;5.850;2022-10-31T12:27:24;17.23;85.43
67054;SHT31;53960;51.826;5.850;2022-10-31T12:29:57;17.33;84.81
67054;SHT31;53960;51.826;5.850;2022-10-31T12:35:54;17.49;84.66
67054;SHT31;53960;51.826;5.850;2022-10-31T12:42:06;17.51;84.39
67054;SHT31;53960;51.826;5.850;2022-10-31T12:47:15;17.56;83.97
67054;SHT31;53960;51.826;5.850;2022-10-31T12:58:45;17.62;83.65
67054;SHT31;53960;51.826;5.850;2022-10-31T13:01:39;17.70;82.79
67054;SHT31;53960;51.826;5.850;2022-10-31T13:04:15;17.75;83.12
67054;SHT31;53960;51.826;5.850;2022-10-31T13:06:49;17.74;82.99
67054;SHT31;53960;51.826;5.850;2022-10-31T13:09:23;17.71;82.12
67054;SHT31;53960;51.826;5.850;2022-10-31T13:11:55;17.78;82.31
67054;SHT31;53960;51.826;5.850;2022-10-31T13:14:27;17.78;81.98
67054;SHT31;53960;51.826;5.850;2022-10-31T13:16:55;17.81;82.07
67054;SHT31;53960;51.826;5.850;2022-10-31T13:19:30;17.83;81.74
67054;SHT31;53960;51.826;5.850;2022-10-31T13:22:16;17.77;81.75
67054;SHT31;53960;51.826;5.850;2022-10-31T13:27:44;17.71;81.41
67054;SHT31;53960;51.826;5.850;2022-10-31T13:30:12;17.70;82.23
67054;SHT31;53960;51.826;5.850;2022-10-31T13:33:04;17.74;81.93
67054;SHT31;53960;51.826;5.850;2022-10-31T13:38:34;17.97;80.52
67054;SHT31;53960;51.826;5.850;2022-10-31T13:41:15;17.95;80.86
67054;SHT31;53960;51.826;5.850;2022-10-31T13:46:37;18.11;79.68
67054;SHT31;53960;51.826;5.850;2022-10-31T13:49:04;18.04;80.01
67054;SHT31;53960;51.826;5.850;2022-10-31T13:51:32;18.04;80.25
67054;SHT31;53960;51.826;5.850;2022-10-31T13:54:01;18.02;80.22
67054;SHT31;53960;51.826;5.850;2022-10-31T13:56:33;17.84;80.59
67054;SHT31;53960;51.826;5.850;2022-10-31T13:59:02;17.78;80.26
67054;SHT31;53960;51.826;5.850;2022-10-31T14:01:28;17.77;80.30
67054;SHT31;53960;51.826;5.850;2022-10-31T14:04:06;17.67;80.97
67054;SHT31;53960;51.826;5.850;2022-10-31T14:07:24;17.53;80.90
67054;SHT31;53960;51.826;5.850;2022-10-31T14:09:58;17.46;81.37
67054;SHT31;53960;51.826;5.850;2022-10-31T14:12:35;17.44;81.35
67054;SHT31;53960;51.826;5.850;2022-10-31T14:15:14;17.40;81.76
67054;SHT31;53960;51.826;5.850;2022-10-31T14:18:03;17.34;82.53
67054;SHT31;53960;51.826;5.850;2022-10-31T14:20:43;17.37;82.65
67054;SHT31;53960;51.826;5.850;2022-10-31T14:26:17;17.27;82.53
67054;SHT31;53960;51.826;5.850;2022-10-31T14:28:43;17.25;82.88
67054;SHT31;53960;51.826;5.850;2022-10-31T14:31:32;17.23;82.68
67054;SHT31;53960;51.826;5.850;2022-10-31T14:34:01;17.22;83.01
67054;SHT31;53960;51.826;5.850;2022-10-31T14:39:21;17.23;83.31
67054;SHT31;53960;51.826;5.850;2022-10-31T14:42:19;17.22;83.39
67054;SHT31;53960;51.826;5.850;2022-10-31T14:44:58;17.15;83.92
67054;SHT31;53960;51.826;5.850;2022-10-31T14:50:47;17.09;84.15
67054;SHT31;53960;51.826;5.850;2022-10-31T14:55:50;17.06;84.31
67054;SHT31;53960;51.826;5.850;2022-10-31T14:58:28;17.02;84.53
67054;SHT31;53960;51.826;5.850;2022-10-31T15:00:57;16.96;84.66
67054;SHT31;53960;51.826;5.850;2022-10-31T15:06:00;16.89;85.19
67054;SHT31;53960;51.826;5.850;2022-10-31T15:08:35;16.89;85.28
67054;SHT31;53960;51.826;5.850;2022-10-31T15:11:16;16.91;85.17
67054;SHT31;53960;51.826;5.850;2022-10-31T15:13:54;16.82;85.35
67054;SHT31;53960;51.826;5.850;2022-10-31T15:16:23;16.76;85.73
67054;SHT31;53960;51.826;5.850;2022-10-31T15:18:52;16.72;85.85
67054;SHT31;53960;51.826;5.850;2022-10-31T15:21:19;16.71;85.87
67054;SHT31;53960;51.826;5.850;2022-10-31T15:23:46;16.71;85.95
67054;SHT31;53960;51.826;5.850;2022-10-31T15:26:17;16.69;86.08
67054;SHT31;53960;51.826;5.850;2022-10-31T15:28:44;16.64;86.27
67054;SHT31;53960;51.826;5.850;2022-10-31T15:31:15;16.60;86.77
67054;SHT31;53960;51.826;5.850;2022-10-31T15:33:42;16.55;86.80
67054;SHT31;53960;51.826;5.850;2022-10-31T15:36:24;16.53;86.84
67054;SHT31;53960;51.826;5.850;2022-10-31T15:38:50;16.50;87.45
67054;SHT31;53960;51.826;5.850;2022-10-31T15:41:28;16.45;86.94
67054;SHT31;53960;51.826;5.850;2022-10-31T15:43:55;16.48;86.89
67054;SHT31;53960;51.826;5.850;2022-10-31T15:46:21;16.43;87.07
67054;SHT31;53960;51.826;5.850;2022-10-31T15:48:47;16.41;86.89
67054;SHT31;53960;51.826;5.850;2022-10-31T15:51:13;16.41;87.04
67054;SHT31;53960;51.826;5.850;2022-10-31T15:53:48;16.34;87.17
67054;SHT31;53960;51.826;5.850;2022-10-31T15:56:27;16.28;87.49
67054;SHT31;53960;51.826;5.850;2022-10-31T15:58:54;16.21;87.69
67054;SHT31;53960;51.826;5.850;2022-10-31T16:01:26;16.17;87.74
67054;SHT31;53960;51.826;5.850;2022-10-31T16:06:35;16.18;87.89
67054;SHT31;53960;51.826;5.850;2022-10-31T16:09:01;16.23;87.51
67054;SHT31;53960;51.826;5.850;2022-10-31T16:11:37;16.23;87.47
67054;SHT31;53960;51.826;5.850;2022-10-31T16:14:15;16.20;87.66
67054;SHT31;53960;51.826;5.850;2022-10-31T16:16:46;16.14;87.74
67054;SHT31;53960;51.826;5.850;2022-10-31T16:19:19;16.05;88.05
67054;SHT31;53960;51.826;5.850;2022-10-31T16:21:46;15.99;88.33
67054;SHT31;53960;51.826;5.850;2022-10-31T16:26:37;15.89;88.65
67054;SHT31;53960;51.826;5.850;2022-10-31T16:29:03;15.82;88.76
67054;SHT31;53960;51.826;5.850;2022-10-31T16:31:38;15.73;88.98
67054;SHT31;53960;51.826;5.850;2022-10-31T16:34:15;15.76;89.07
67054;SHT31;53960;51.826;5.850;2022-10-31T16:36:41;15.70;89.09
67054;SHT31;53960;51.826;5.850;2022-10-31T16:39:08;15.66;89.24
67054;SHT31;53960;51.826;5.850;2022-10-31T16:41:42;15.66;89.23
67054;SHT31;53960;51.826;5.850;2022-10-31T16:44:24;15.63;89.17
67054;SHT31;53960;51.826;5.850;2022-10-31T16:47:12;15.59;89.28
67054;SHT31;53960;51.826;5.850;2022-10-31T16:49:38;15.52;89.21
67054;SHT31;53960;51.826;5.850;2022-10-31T16:52:04;15.47;89.49
67054;SHT31;53960;51.826;5.850;2022-10-31T16:54:29;15.48;89.36
67054;SHT31;53960;51.826;5.850;2022-10-31T16:56:55;15.44;89.35
67054;SHT31;53960;51.826;5.850;2022-10-31T16:59:20;15.37;89.46
67054;SHT31;53960;51.826;5.850;2022-10-31T17:01:48;15.34;89.52
67054;SHT31;53960;51.826;5.850;2022-10-31T17:04:14;15.28;89.67
67054;SHT31;53960;51.826;5.850;2022-10-31T17:06:40;15.24;89.70
67054;SHT31;53960;51.826;5.850;2022-10-31T17:09:06;15.27;89.36
67054;SHT31;53960;51.826;5.850;2022-10-31T17:11:31;15.28;89.34
67054;SHT31;53960;51.826;5.850;2022-10-31T17:13:57;15.28;89.08
67054;SHT31;53960;51.826;5.850;2022-10-31T17:16:23;15.27;89.03
67054;SHT31;53960;51.826;5.850;2022-10-31T17:18:48;15.23;88.98